createdAt,value
2019-01-03T00:00:11.847Z,-3.20
2019-01-03T00:03:00.183Z,-3.20
2019-01-03T00:05:54.756Z,-3.30
2019-01-03T00:08:56.051Z,-3.20
2019-01-03T00:11:42.728Z,-3.30
2019-01-03T00:14:29.247Z,-3.40
2019-01-03T00:17:16.625Z,-3.50
2019-01-03T00:20:14.452Z,-3.60
2019-01-03T00:23:13.585Z,-3.70
2019-01-03T00:26:10.887Z,-3.70
2019-01-03T00:29:05.687Z,-3.70
2019-01-03T00:32:05.843Z,-3.70
2019-01-03T00:35:09.404Z,-3.70
2019-01-03T00:38:00.936Z,-3.80
2019-01-03T00:40:39.959Z,-3.70
2019-01-03T00:43:28.105Z,-3.70
2019-01-03T00:46:13.976Z,-3.60
2019-01-03T00:49:00.894Z,-3.50
2019-01-03T00:51:44.332Z,-3.40
2019-01-03T00:54:33.866Z,-3.30
2019-01-03T00:57:21.343Z,-3.30
2019-01-03T01:00:14.531Z,-3.20
2019-01-03T01:03:06.431Z,-3.00
2019-01-03T01:05:55.608Z,-3.00
2019-01-03T01:08:37.695Z,-2.80
2019-01-03T01:11:41.612Z,-2.80
2019-01-03T01:14:41.544Z,-2.70
2019-01-03T01:17:28.436Z,-2.70
2019-01-03T01:20:20.964Z,-2.70
2019-01-03T01:23:26.088Z,-2.60
2019-01-03T01:26:18.287Z,-2.70
2019-01-03T01:28:59.976Z,-2.70
2019-01-03T01:31:59.458Z,-2.80
2019-01-03T01:34:59.840Z,-3.00
2019-01-03T01:37:47.553Z,-3.10
2019-01-03T01:40:46.138Z,-3.10
2019-01-03T01:43:33.274Z,-3.20
2019-01-03T01:46:33.867Z,-3.20
2019-01-03T01:49:25.147Z,-3.30
2019-01-03T01:52:08.699Z,-3.30
2019-01-03T01:55:12.224Z,-3.40
2019-01-03T01:58:00.685Z,-3.40
2019-01-03T02:00:45.421Z,-3.50
2019-01-03T02:03:48.907Z,-3.60
2019-01-03T02:06:36.783Z,-3.60
2019-01-03T02:09:25.841Z,-3.70
2019-01-03T02:12:24.556Z,-3.70
2019-01-03T02:15:11.948Z,-3.80
2019-01-03T02:17:54.472Z,-3.80
2019-01-03T02:20:53.240Z,-3.90
2019-01-03T02:23:39.002Z,-3.90
2019-01-03T02:26:46.028Z,-4.00
2019-01-03T02:29:43.871Z,-4.10
2019-01-03T02:32:30.687Z,-4.20
2019-01-03T02:35:17.468Z,-4.20
2019-01-03T02:38:20.816Z,-4.30
2019-01-03T02:41:12.717Z,-4.30
2019-01-03T02:44:17.351Z,-4.30
2019-01-03T02:47:06.031Z,-4.40
2019-01-03T02:50:06.318Z,-4.50
2019-01-03T02:52:53.521Z,-4.50
2019-01-03T02:55:35.959Z,-4.50
2019-01-03T02:58:24.267Z,-4.60
2019-01-03T03:01:15.256Z,-4.60
2019-01-03T03:04:03.536Z,-4.60
2019-01-03T03:06:52.028Z,-4.60
2019-01-03T03:09:43.197Z,-4.60
2019-01-03T03:12:31.278Z,-4.70
2019-01-03T03:15:38.398Z,-4.70
2019-01-03T03:18:32.866Z,-4.70
2019-01-03T03:21:23.792Z,-4.70
2019-01-03T03:24:04.826Z,-4.70
2019-01-03T03:26:47.215Z,-4.80
2019-01-03T03:29:30.699Z,-4.80
2019-01-03T03:32:24.753Z,-4.80
2019-01-03T03:35:04.103Z,-4.80
2019-01-03T03:37:51.572Z,-4.80
2019-01-03T03:40:56.998Z,-4.80
2019-01-03T03:43:46.845Z,-4.80
2019-01-03T03:46:33.991Z,-4.80
2019-01-03T03:49:31.899Z,-4.80
2019-01-03T03:52:20.465Z,-4.90
2019-01-03T03:55:07.216Z,-4.90
2019-01-03T03:57:54.215Z,-5.00
2019-01-03T04:00:48.868Z,-5.00
2019-01-03T04:03:37.433Z,-5.00
2019-01-03T04:06:25.819Z,-5.00
2019-01-03T04:09:10.035Z,-5.00
2019-01-03T04:11:57.644Z,-5.00
2019-01-03T04:14:50.444Z,-5.00
2019-01-03T04:17:37.727Z,-5.00
2019-01-03T04:20:27.780Z,-5.00
2019-01-03T04:23:19.143Z,-5.00
2019-01-03T04:26:06.569Z,-4.90
2019-01-03T04:29:09.521Z,-5.00
2019-01-03T04:31:56.266Z,-5.00
2019-01-03T04:34:36.413Z,-5.00
2019-01-03T04:37:30.593Z,-5.10
2019-01-03T04:40:18.134Z,-5.20
2019-01-03T04:43:17.907Z,-5.20
2019-01-03T04:46:05.183Z,-5.30
2019-01-03T04:48:49.521Z,-5.40
2019-01-03T04:51:38.864Z,-5.50
2019-01-03T04:54:26.940Z,-5.50
2019-01-03T04:57:08.184Z,-5.50
2019-01-03T05:00:02.188Z,-5.50
2019-01-03T05:02:59.292Z,-5.50
2019-01-03T05:05:40.024Z,-5.50
2019-01-03T05:08:31.631Z,-5.50
2019-01-03T05:11:20.196Z,-5.50
2019-01-03T05:14:26.965Z,-5.40
2019-01-03T05:17:24.471Z,-5.50
2019-01-03T05:20:14.215Z,-5.50
2019-01-03T05:23:05.969Z,-5.40
2019-01-03T05:25:54.645Z,-5.50
2019-01-03T05:28:57.968Z,-5.50
2019-01-03T05:31:52.443Z,-5.60
2019-01-03T05:34:41.435Z,-5.60
2019-01-03T05:37:24.135Z,-5.60
2019-01-03T05:40:17.514Z,-5.70
2019-01-03T05:43:06.137Z,-5.80
2019-01-03T05:45:51.111Z,-5.80
2019-01-03T05:48:37.909Z,-5.80
2019-01-03T05:51:40.920Z,-5.80
2019-01-03T05:54:22.865Z,-5.90
2019-01-03T05:57:10.574Z,-5.90
2019-01-03T06:00:14.479Z,-5.80
2019-01-03T06:03:04.984Z,-5.90
2019-01-03T06:05:51.022Z,-5.90
2019-01-03T06:08:39.104Z,-5.90
2019-01-03T06:11:44.361Z,-5.90
2019-01-03T06:14:27.136Z,-5.90
2019-01-03T06:17:05.014Z,-5.90
2019-01-03T06:19:49.436Z,-5.90
2019-01-03T06:22:36.354Z,-5.80
2019-01-03T06:25:26.168Z,-5.80
2019-01-03T06:28:33.049Z,-5.80
2019-01-03T06:31:24.488Z,-5.80
2019-01-03T06:34:11.359Z,-5.70
2019-01-03T06:36:58.714Z,-5.70
2019-01-03T06:39:45.879Z,-5.60
2019-01-03T06:42:32.455Z,-5.50
2019-01-03T06:45:19.619Z,-5.40
2019-01-03T06:48:15.095Z,-5.30
2019-01-03T06:51:02.806Z,-5.20
2019-01-03T06:53:50.099Z,-5.20
2019-01-03T06:56:44.262Z,-5.20
2019-01-03T06:59:25.657Z,-5.20
2019-01-03T07:02:22.913Z,-5.10
2019-01-03T07:05:10.928Z,-5.20
2019-01-03T07:07:49.144Z,-5.20
2019-01-03T07:10:43.796Z,-5.10
2019-01-03T07:13:31.920Z,-5.20
2019-01-03T07:16:18.740Z,-5.10
2019-01-03T07:19:12.883Z,-5.10
2019-01-03T07:22:00.787Z,-5.10
2019-01-03T07:25:07.311Z,-5.00
2019-01-03T07:28:09.869Z,-5.00
2019-01-03T07:30:54.211Z,-4.90
2019-01-03T07:33:41.148Z,-4.90
2019-01-03T07:36:32.146Z,-5.00
2019-01-03T07:39:31.112Z,-5.00
2019-01-03T07:42:23.718Z,-5.10
2019-01-03T07:45:30.046Z,-5.00
2019-01-03T07:48:17.015Z,-5.00
2019-01-03T07:51:15.843Z,-4.90
2019-01-03T07:54:02.822Z,-4.70
2019-01-03T07:56:49.895Z,-4.70
2019-01-03T07:59:55.651Z,-4.60
2019-01-03T08:02:52.705Z,-4.50
2019-01-03T08:05:39.506Z,-4.40
2019-01-03T08:08:26.335Z,-4.30
2019-01-03T08:11:17.196Z,-4.10
2019-01-03T08:14:05.599Z,-4.10
2019-01-03T08:17:00.602Z,-4.00
2019-01-03T08:19:43.576Z,-3.90
2019-01-03T08:22:26.425Z,-3.80
2019-01-03T08:25:17.520Z,-3.70
2019-01-03T08:28:04.567Z,-3.60
2019-01-03T08:30:52.500Z,-3.50
2019-01-03T08:33:39.476Z,-3.40
2019-01-03T08:36:23.760Z,-3.30
2019-01-03T08:39:11.010Z,-3.20
2019-01-03T08:41:58.120Z,-3.10
2019-01-03T08:44:49.281Z,-3.10
2019-01-03T08:47:37.623Z,-2.90
2019-01-03T08:50:25.381Z,-2.80
2019-01-03T08:53:16.408Z,-2.70
2019-01-03T08:56:03.923Z,-2.60
2019-01-03T08:59:05.272Z,-2.40
2019-01-03T09:01:54.084Z,-2.40
2019-01-03T09:04:51.288Z,-2.30
2019-01-03T09:07:38.009Z,-2.20
2019-01-03T09:10:25.124Z,-2.10
2019-01-03T09:13:22.454Z,-2.00
2019-01-03T09:16:10.459Z,-1.90
2019-01-03T09:19:14.823Z,-1.80
2019-01-03T09:22:01.700Z,-1.60
2019-01-03T09:24:43.824Z,-1.50
2019-01-03T09:27:47.307Z,-1.40
2019-01-03T09:30:40.412Z,-1.40
2019-01-03T09:33:21.057Z,-1.40
2019-01-03T09:36:08.182Z,-1.30
2019-01-03T09:38:59.415Z,-1.40
2019-01-03T09:41:49.539Z,-1.40
2019-01-03T09:44:56.051Z,-1.30
2019-01-03T09:47:24.971Z,-1.30
2019-01-03T09:49:54.041Z,-1.20
2019-01-03T09:52:22.984Z,-1.20
2019-01-03T09:54:52.153Z,-1.20
2019-01-03T09:57:21.120Z,-1.10
2019-01-03T09:59:50.219Z,-1.10
2019-01-03T10:02:19.344Z,-1.10
2019-01-03T10:04:48.512Z,-1.00
2019-01-03T10:07:17.706Z,-1.00
2019-01-03T10:09:46.932Z,-1.00
2019-01-03T10:12:15.853Z,-0.90
2019-01-03T10:14:44.763Z,-0.90
2019-01-03T10:17:13.843Z,-0.90
2019-01-03T10:19:43.049Z,-0.80
2019-01-03T10:22:12.283Z,-0.80
2019-01-03T10:24:41.428Z,-0.70
2019-01-03T10:27:10.473Z,-0.60
2019-01-03T10:29:39.505Z,-0.60
2019-01-03T10:32:08.427Z,-0.60
2019-01-03T10:34:37.760Z,-0.70
2019-01-03T10:37:06.659Z,-0.60
2019-01-03T10:39:35.509Z,-0.60
2019-01-03T10:42:04.621Z,-0.50
2019-01-03T10:44:33.755Z,-0.40
2019-01-03T10:47:02.751Z,-0.40
2019-01-03T10:49:32.051Z,-0.30
2019-01-03T10:52:01.236Z,-0.30
2019-01-03T10:54:30.375Z,-0.20
2019-01-03T10:56:59.580Z,-0.10
2019-01-03T10:59:28.703Z,-0.10
2019-01-03T11:01:57.859Z,0.00
2019-01-03T11:04:27.094Z,0.00
2019-01-03T11:06:56.191Z,0.00
2019-01-03T11:09:25.386Z,-0.10
2019-01-03T11:11:54.516Z,-0.10
2019-01-03T11:14:23.516Z,0.00
2019-01-03T11:16:52.767Z,0.10
2019-01-03T11:19:21.850Z,0.10
2019-01-03T11:21:50.979Z,0.20
2019-01-03T11:24:19.909Z,0.30
2019-01-03T11:26:49.058Z,0.40
2019-01-03T11:29:17.876Z,0.40
2019-01-03T11:31:47.042Z,0.40
2019-01-03T11:34:16.101Z,0.40
2019-01-03T11:36:45.220Z,0.50
2019-01-03T11:39:14.203Z,0.50
2019-01-03T11:41:43.294Z,0.60
2019-01-03T11:44:12.831Z,0.70
2019-01-03T11:46:41.796Z,0.70
2019-01-03T11:49:10.664Z,0.70
2019-01-03T11:51:39.659Z,0.70
2019-01-03T11:54:08.660Z,0.70
2019-01-03T11:56:37.725Z,0.70
2019-01-03T11:59:07.715Z,0.70
2019-01-03T12:01:36.716Z,0.80
2019-01-03T12:04:05.663Z,0.90
2019-01-03T12:06:35.238Z,0.90
2019-01-03T12:09:04.820Z,0.80
2019-01-03T12:11:33.835Z,0.80
2019-01-03T12:14:02.856Z,0.80
2019-01-03T12:16:31.958Z,0.80
2019-01-03T12:19:01.062Z,0.90
2019-01-03T12:21:30.024Z,1.10
2019-01-03T12:23:59.114Z,1.20
2019-01-03T12:26:28.308Z,1.20
2019-01-03T12:28:57.796Z,1.20
2019-01-03T12:31:26.995Z,1.10
2019-01-03T12:33:56.046Z,1.00
2019-01-03T12:36:25.139Z,0.90
2019-01-03T12:38:54.151Z,0.80
2019-01-03T12:41:23.307Z,0.80
2019-01-03T12:43:52.808Z,0.90
2019-01-03T12:46:21.845Z,1.00
2019-01-03T12:48:50.984Z,0.90
2019-01-03T12:51:19.984Z,0.90
2019-01-03T12:53:49.079Z,0.90
2019-01-03T12:56:18.210Z,1.00
2019-01-03T12:58:47.314Z,1.10
2019-01-03T13:01:16.381Z,1.10
2019-01-03T13:03:45.491Z,1.10
2019-01-03T13:06:20.843Z,1.30
2019-01-03T13:08:45.203Z,1.40
2019-01-03T13:11:14.231Z,1.60
2019-01-03T13:13:43.665Z,1.60
2019-01-03T13:16:12.792Z,1.50
2019-01-03T13:18:41.936Z,1.40
2019-01-03T13:21:10.992Z,1.30
2019-01-03T13:23:39.884Z,1.10
2019-01-03T13:26:08.907Z,0.90
2019-01-03T13:28:38.115Z,0.70
2019-01-03T13:31:07.207Z,0.60
2019-01-03T13:33:36.366Z,0.70
2019-01-03T13:36:05.531Z,0.80
2019-01-03T13:38:34.508Z,0.90
2019-01-03T13:41:03.740Z,1.10
2019-01-03T13:43:32.771Z,1.20
2019-01-03T13:46:01.806Z,1.40
2019-01-03T13:48:30.820Z,1.50
2019-01-03T13:50:59.699Z,1.40
2019-01-03T13:53:28.526Z,1.40
2019-01-03T13:55:57.745Z,1.40
2019-01-03T13:58:26.684Z,1.40
2019-01-03T14:00:55.640Z,1.40
2019-01-03T14:03:24.612Z,1.40
2019-01-03T14:05:53.845Z,1.30
2019-01-03T14:08:22.931Z,1.20
2019-01-03T14:10:52.327Z,1.20
2019-01-03T14:13:21.391Z,1.10
2019-01-03T14:15:50.411Z,1.00
2019-01-03T14:18:19.391Z,0.90
2019-01-03T14:20:48.524Z,0.80
2019-01-03T14:23:17.567Z,0.80
2019-01-03T14:25:47.046Z,0.80
2019-01-03T14:28:16.166Z,0.80
2019-01-03T14:30:45.305Z,0.70
2019-01-03T14:33:14.487Z,0.60
2019-01-03T14:35:43.764Z,0.60
2019-01-03T14:38:12.778Z,0.50
2019-01-03T14:40:41.783Z,0.50
2019-01-03T14:43:11.006Z,0.50
2019-01-03T14:45:40.444Z,0.40
2019-01-03T14:48:09.579Z,0.40
2019-01-03T14:50:38.578Z,0.30
2019-01-03T14:53:07.668Z,0.30
2019-01-03T14:55:36.756Z,0.30
2019-01-03T14:58:05.732Z,0.30
2019-01-03T15:00:34.799Z,0.30
2019-01-03T15:03:04.426Z,0.20
2019-01-03T15:05:33.656Z,0.20
2019-01-03T15:08:02.627Z,0.10
2019-01-03T15:10:31.553Z,-0.10
2019-01-03T15:13:00.456Z,-0.10
2019-01-03T15:15:31.234Z,-0.20
2019-01-03T15:18:02.671Z,-0.20
2019-01-03T15:20:31.887Z,-0.30
2019-01-03T15:23:00.887Z,-0.30
2019-01-03T15:25:29.932Z,-0.40
2019-01-03T15:27:59.081Z,-0.40
2019-01-03T15:30:28.257Z,-0.40
2019-01-03T15:32:57.411Z,-0.40
2019-01-03T15:35:26.610Z,-0.50
2019-01-03T15:37:56.092Z,-0.50
2019-01-03T15:40:25.174Z,-0.50
2019-01-03T15:42:54.019Z,-0.50
2019-01-03T15:45:23.060Z,-0.60
2019-01-03T15:47:52.195Z,-0.60
2019-01-03T15:50:21.351Z,-0.50
2019-01-03T15:52:50.528Z,-0.60
2019-01-03T15:55:19.553Z,-0.50
2019-01-03T15:57:48.583Z,-0.50
2019-01-03T16:00:20.560Z,-0.50
2019-01-03T16:02:49.602Z,-0.50
2019-01-03T16:05:19.304Z,-0.50
2019-01-03T16:07:48.835Z,-0.50
2019-01-03T16:10:18.042Z,-0.50
2019-01-03T16:12:47.207Z,-0.50
2019-01-03T16:15:17.416Z,-0.50
2019-01-03T16:17:46.563Z,-0.50
2019-01-03T16:20:15.692Z,-0.50
2019-01-03T16:22:45.134Z,-0.50
2019-01-03T16:25:14.259Z,-0.50
2019-01-03T16:27:43.354Z,-0.50
2019-01-03T16:30:12.927Z,-0.50
2019-01-03T16:32:41.953Z,-0.50
2019-01-03T16:35:11.154Z,-0.50
2019-01-03T16:37:40.146Z,-0.50
2019-01-03T16:40:13.086Z,-0.50
2019-01-03T16:42:45.450Z,-0.50
2019-01-03T16:45:14.819Z,-0.50
2019-01-03T16:47:43.923Z,-0.50
2019-01-03T16:50:17.579Z,-0.60
2019-01-03T16:52:46.922Z,-0.60
2019-01-03T16:55:16.427Z,-0.60
2019-01-03T16:57:46.176Z,-0.60
2019-01-03T17:00:15.427Z,-0.50
2019-01-03T17:02:44.532Z,-0.50
2019-01-03T17:05:14.273Z,-0.60
2019-01-03T17:07:43.463Z,-0.60
2019-01-03T17:10:15.113Z,-0.50
2019-01-03T17:12:44.053Z,-0.50
2019-01-03T17:15:13.356Z,-0.60
2019-01-03T17:17:42.406Z,-0.50
2019-01-03T17:20:11.888Z,-0.60
2019-01-03T17:22:40.890Z,-0.60
2019-01-03T17:25:12.424Z,-0.60
2019-01-03T17:27:42.109Z,-0.60
2019-01-03T17:30:12.319Z,-0.60
2019-01-03T17:32:41.335Z,-0.50
2019-01-03T17:35:11.696Z,-0.50
2019-01-03T17:37:40.870Z,-0.50
2019-01-03T17:40:11.999Z,-0.50
2019-01-03T17:42:41.816Z,-0.50
2019-01-03T17:45:11.442Z,-0.50
2019-01-03T17:47:40.447Z,-0.50
2019-01-03T17:50:10.881Z,-0.50
2019-01-03T17:52:40.356Z,-0.50
2019-01-03T17:55:10.080Z,-0.50
2019-01-03T17:57:39.439Z,-0.50
2019-01-03T18:00:12.315Z,-0.50
2019-01-03T18:02:41.645Z,-0.50
2019-01-03T18:05:10.932Z,-0.50
2019-01-03T18:07:39.994Z,-0.40
2019-01-03T18:10:11.241Z,-0.50
2019-01-03T18:12:40.513Z,-0.40
2019-01-03T18:15:09.920Z,-0.50
2019-01-03T18:17:39.168Z,-0.40
2019-01-03T18:20:11.835Z,-0.40
2019-01-03T18:22:40.760Z,-0.40
2019-01-03T18:25:09.984Z,-0.40
2019-01-03T18:27:39.291Z,-0.40
2019-01-03T18:30:10.210Z,-0.50
2019-01-03T18:32:39.832Z,-0.40
2019-01-03T18:35:09.388Z,-0.40
2019-01-03T18:37:38.454Z,-0.40
2019-01-03T18:40:11.754Z,-0.40
2019-01-03T18:42:41.148Z,-0.40
2019-01-03T18:45:12.515Z,-0.50
2019-01-03T18:47:41.595Z,-0.40
2019-01-03T18:50:10.860Z,-0.40
2019-01-03T18:52:40.430Z,-0.40
2019-01-03T18:55:10.259Z,-0.40
2019-01-03T18:57:39.635Z,-0.40
2019-01-03T19:00:10.212Z,-0.50
2019-01-03T19:02:39.497Z,-0.40
2019-01-03T19:05:08.734Z,-0.40
2019-01-03T19:07:37.848Z,-0.40
2019-01-03T19:10:09.092Z,-0.40
2019-01-03T19:12:38.586Z,-0.40
2019-01-03T19:15:08.828Z,-0.40
2019-01-03T19:17:38.433Z,-0.40
2019-01-03T19:20:09.812Z,-0.30
2019-01-03T19:22:39.259Z,-0.30
2019-01-03T19:25:12.366Z,-0.30
2019-01-03T19:27:41.418Z,-0.30
2019-01-03T19:30:11.354Z,-0.30
2019-01-03T19:32:41.428Z,-0.30
2019-01-03T19:35:11.268Z,-0.30
2019-01-03T19:37:41.835Z,-0.20
2019-01-03T19:40:12.695Z,-0.30
2019-01-03T19:42:42.823Z,-0.20
2019-01-03T19:45:12.577Z,-0.20
2019-01-03T19:47:41.694Z,-0.30
2019-01-03T19:50:12.692Z,-0.20
2019-01-03T19:52:42.038Z,-0.30
2019-01-03T19:55:11.416Z,-0.30
2019-01-03T19:57:41.099Z,-0.30
2019-01-03T20:00:13.031Z,-0.20
2019-01-03T20:02:42.205Z,-0.30
2019-01-03T20:05:11.552Z,-0.30
2019-01-03T20:07:41.207Z,-0.30
2019-01-03T20:10:11.567Z,-0.20
2019-01-03T20:12:41.187Z,-0.20
2019-01-03T20:15:11.876Z,-0.30
2019-01-03T20:17:40.884Z,-0.30
2019-01-03T20:20:10.750Z,-0.30
2019-01-03T20:22:41.612Z,-0.40
2019-01-03T20:25:11.959Z,-0.30
2019-01-03T20:27:42.567Z,-0.30
2019-01-03T20:30:13.407Z,-0.40
2019-01-03T20:32:42.975Z,-0.40
2019-01-03T20:35:12.163Z,-0.40
2019-01-03T20:37:42.424Z,-0.40
2019-01-03T20:40:11.950Z,-0.30
2019-01-03T20:42:41.297Z,-0.30
2019-01-03T20:45:13.660Z,-0.30
2019-01-03T20:47:42.612Z,-0.30
2019-01-03T20:50:12.331Z,-0.20
2019-01-03T20:52:41.539Z,-0.20
2019-01-03T20:55:10.543Z,-0.20
2019-01-03T20:57:40.056Z,-0.30
2019-01-03T21:00:11.708Z,-0.20
2019-01-03T21:02:41.255Z,-0.20
2019-01-03T21:05:10.143Z,-0.10
2019-01-03T21:07:39.513Z,-0.20
2019-01-03T21:10:10.826Z,-0.10
2019-01-03T21:12:40.057Z,-0.20
2019-01-03T21:15:11.674Z,-0.20
2019-01-03T21:17:41.398Z,-0.20
2019-01-03T21:20:11.719Z,-0.20
2019-01-03T21:22:41.104Z,-0.20
2019-01-03T21:25:10.869Z,-0.20
2019-01-03T21:27:40.043Z,-0.20
2019-01-03T21:30:12.012Z,-0.20
2019-01-03T21:32:41.091Z,-0.20
2019-01-03T21:35:10.259Z,-0.20
2019-01-03T21:37:39.495Z,-0.20
2019-01-03T21:40:10.101Z,-0.20
2019-01-03T21:42:39.340Z,-0.20
2019-01-03T21:45:09.073Z,-0.20
2019-01-03T21:47:38.359Z,-0.20
2019-01-03T21:50:10.255Z,-0.10
2019-01-03T21:52:39.400Z,-0.10
2019-01-03T21:55:08.923Z,-0.10
2019-01-03T21:57:39.582Z,-0.10
2019-01-03T22:00:13.236Z,-0.10
2019-01-03T22:02:45.011Z,-0.20
2019-01-03T22:05:14.864Z,-0.20
2019-01-03T22:07:44.229Z,-0.20
2019-01-03T22:10:17.641Z,-0.20
2019-01-03T22:12:45.915Z,-0.20
2019-01-03T22:15:15.148Z,-0.20
2019-01-03T22:17:44.497Z,-0.20
2019-01-03T22:20:13.633Z,-0.20
2019-01-03T22:22:43.885Z,-0.20
2019-01-03T22:25:13.185Z,-0.30
2019-01-03T22:27:42.387Z,-0.20
2019-01-03T22:30:12.117Z,-0.30
2019-01-03T22:32:42.301Z,-0.20
2019-01-03T22:35:11.867Z,-0.20
2019-01-03T22:37:43.095Z,-0.20
2019-01-03T22:40:12.628Z,-0.20
2019-01-03T22:42:41.736Z,-0.20
2019-01-03T22:45:11.640Z,-0.30
2019-01-03T22:47:41.084Z,-0.30
2019-01-03T22:50:10.794Z,-0.20
2019-01-03T22:52:39.916Z,-0.20
2019-01-03T22:55:09.278Z,-0.20
2019-01-03T22:57:38.427Z,-0.20
2019-01-03T23:00:24.475Z,-0.20
2019-01-03T23:02:53.884Z,-0.20
2019-01-03T23:05:23.483Z,-0.20
2019-01-03T23:07:52.598Z,-0.20
2019-01-03T23:10:22.083Z,-0.20
2019-01-03T23:12:51.227Z,-0.20
2019-01-03T23:15:20.427Z,-0.20
2019-01-03T23:17:50.537Z,-0.30
2019-01-03T23:20:19.778Z,-0.20
2019-01-03T23:22:49.616Z,-0.30
2019-01-03T23:25:18.688Z,-0.20
2019-01-03T23:27:47.771Z,-0.20
2019-01-03T23:30:17.620Z,-0.20
2019-01-03T23:32:47.331Z,-0.20
2019-01-03T23:35:16.420Z,-0.20
2019-01-03T23:37:46.031Z,-0.20
2019-01-03T23:40:15.279Z,-0.20
2019-01-03T23:42:44.636Z,-0.20
2019-01-03T23:45:25.944Z,-0.20
2019-01-03T23:47:56.681Z,-0.20
2019-01-03T23:50:28.463Z,-0.30
2019-01-03T23:52:58.084Z,-0.30
2019-01-03T23:55:27.485Z,-0.30
2019-01-03T23:57:57.414Z,-0.30
